createdAt,value
2022-10-30T00:04:33.875Z,12
2022-10-30T00:09:45.864Z,12
2022-10-30T00:14:57.768Z,12
2022-10-30T00:20:09.659Z,12
2022-10-30T00:25:21.662Z,12
2022-10-30T00:30:33.330Z,12
2022-10-30T00:40:58.882Z,12
2022-10-30T00:46:10.400Z,12
2022-10-30T00:51:22.419Z,11
2022-10-30T00:56:34.402Z,11
2022-10-30T01:01:46.870Z,11
2022-10-30T01:06:58.587Z,11
2022-10-30T01:12:10.353Z,11
2022-10-30T01:17:22.280Z,11
2022-10-30T01:22:34.089Z,11
2022-10-30T01:27:45.933Z,11
2022-10-30T01:32:58.750Z,11
2022-10-30T01:38:11.149Z,11
2022-10-30T01:43:23.075Z,11
2022-10-30T01:48:34.819Z,11
2022-10-30T01:53:46.587Z,11
2022-10-30T01:58:58.413Z,11
2022-10-30T02:04:10.290Z,11
2022-10-30T02:09:22.099Z,11
2022-10-30T02:14:34.073Z,11
2022-10-30T02:19:45.877Z,11
2022-10-30T02:24:57.718Z,11
2022-10-30T02:30:09.440Z,11
2022-10-30T02:35:21.105Z,11
2022-10-30T02:40:32.795Z,11
2022-10-30T02:45:44.555Z,11
2022-10-30T02:50:56.301Z,11
2022-10-30T02:56:08.020Z,11
2022-10-30T03:01:20.557Z,11
2022-10-30T03:06:32.688Z,11
2022-10-30T03:11:44.405Z,11
2022-10-30T03:16:56.157Z,11
2022-10-30T03:22:07.969Z,11
2022-10-30T03:27:19.741Z,11
2022-10-30T03:32:31.582Z,11
2022-10-30T03:37:43.430Z,10
2022-10-30T03:42:56.354Z,10
2022-10-30T03:48:08.333Z,10
2022-10-30T03:53:19.970Z,10
2022-10-30T03:58:31.773Z,10
2022-10-30T04:03:43.785Z,10
2022-10-30T04:08:55.462Z,10
2022-10-30T04:14:07.310Z,10
2022-10-30T04:19:19.212Z,10
2022-10-30T04:24:31.139Z,10
2022-10-30T04:29:42.642Z,10
2022-10-30T04:34:54.528Z,9
2022-10-30T04:40:06.392Z,10
2022-10-30T04:45:18.119Z,10
2022-10-30T04:50:30.016Z,10
2022-10-30T04:55:41.549Z,10
2022-10-30T05:00:57.758Z,10
2022-10-30T05:06:17.984Z,10
2022-10-30T05:11:29.649Z,10
2022-10-30T05:16:41.469Z,10
2022-10-30T05:21:53.235Z,10
2022-10-30T05:27:05.208Z,10
2022-10-30T05:32:17.074Z,10
2022-10-30T05:37:28.753Z,10
2022-10-30T05:42:40.439Z,9
2022-10-30T05:47:51.993Z,9
2022-10-30T05:53:04.042Z,9
2022-10-30T05:58:15.795Z,9
2022-10-30T06:03:27.533Z,9
2022-10-30T06:08:39.411Z,9
2022-10-30T06:13:51.106Z,9
2022-10-30T06:19:02.801Z,9
2022-10-30T06:24:14.607Z,10
2022-10-30T06:29:26.548Z,10
2022-10-30T06:34:38.352Z,10
2022-10-30T06:40:00.412Z,10
2022-10-30T06:45:12.079Z,10
2022-10-30T06:50:23.933Z,10
2022-10-30T06:55:35.839Z,10
2022-10-30T07:00:47.648Z,10
2022-10-30T07:05:59.374Z,10
2022-10-30T07:11:11.390Z,10
2022-10-30T07:16:23.103Z,10
2022-10-30T07:21:35.127Z,10
2022-10-30T07:26:47.161Z,10
2022-10-30T07:32:04.274Z,11
2022-10-30T07:37:18.579Z,10
2022-10-30T07:42:30.813Z,11
2022-10-30T07:47:42.476Z,11
2022-10-30T07:52:54.453Z,11
2022-10-30T07:58:06.236Z,11
2022-10-30T08:03:18.175Z,12
2022-10-30T08:08:30.083Z,11
2022-10-30T08:13:42.324Z,12
2022-10-30T08:18:54.420Z,12
2022-10-30T08:24:06.635Z,12
2022-10-30T08:29:18.676Z,13
2022-10-30T08:34:30.599Z,13
2022-10-30T08:39:42.722Z,13
2022-10-30T08:44:55.138Z,13
2022-10-30T08:50:07.198Z,14
2022-10-30T08:55:19.211Z,14
2022-10-30T09:00:31.311Z,14
2022-10-30T09:05:43.455Z,14
2022-10-30T09:10:55.450Z,14
2022-10-30T09:16:07.611Z,15
2022-10-30T09:21:19.759Z,15
2022-10-30T09:26:31.951Z,15
2022-10-30T09:31:51.562Z,15
2022-10-30T09:37:03.516Z,16
2022-10-30T09:42:15.756Z,16
2022-10-30T09:47:28.128Z,16
2022-10-30T09:52:42.460Z,17
2022-10-30T09:57:54.177Z,17
2022-10-30T10:03:06.324Z,17
2022-10-30T10:08:18.889Z,17
2022-10-30T10:13:32.118Z,17
2022-10-30T10:18:44.201Z,18
2022-10-30T10:23:56.719Z,18
2022-10-30T10:29:09.083Z,18
2022-10-30T10:34:21.450Z,18
2022-10-30T10:39:33.717Z,19
2022-10-30T10:44:46.047Z,19
2022-10-30T10:49:58.359Z,19
2022-10-30T10:55:10.848Z,19
2022-10-30T11:00:23.367Z,20
2022-10-30T11:05:36.600Z,20
2022-10-30T11:10:52.301Z,24
2022-10-30T11:16:07.886Z,27
2022-10-30T11:21:22.615Z,29
2022-10-30T11:36:59.951Z,30
2022-10-30T11:42:12.772Z,31
2022-10-30T11:47:26.275Z,31
2022-10-30T11:52:39.615Z,32
2022-10-30T11:57:51.789Z,31
2022-10-30T12:03:04.982Z,32
2022-10-30T12:13:28.268Z,32
2022-10-30T12:18:40.923Z,32
2022-10-30T12:23:54.358Z,32
2022-10-30T12:34:17.873Z,34
2022-10-30T12:39:31.699Z,34
2022-10-30T12:49:54.865Z,34
2022-10-30T12:55:07.590Z,34
2022-10-30T13:00:19.857Z,34
2022-10-30T13:21:03.875Z,31
2022-10-30T13:26:16.209Z,31
2022-10-30T13:31:28.710Z,32
2022-10-30T13:41:51.643Z,31
2022-10-30T13:47:04.199Z,32
2022-10-30T14:23:16.896Z,24
2022-10-30T14:28:29.081Z,25
2022-10-30T14:33:41.425Z,25
2022-10-30T14:38:53.897Z,25
2022-10-30T14:44:06.318Z,25
2022-10-30T14:54:28.614Z,24
2022-10-30T14:59:40.731Z,24
2022-10-30T15:04:52.890Z,24
2022-10-30T15:15:15.076Z,24
2022-10-30T15:20:27.271Z,24
2022-10-30T15:30:49.558Z,23
2022-10-30T15:36:01.796Z,23
2022-10-30T15:41:14.076Z,23
2022-10-30T16:01:56.263Z,22
2022-10-30T16:12:18.471Z,21
2022-10-30T16:27:50.550Z,21
2022-10-30T16:38:15.786Z,20
2022-10-30T16:43:26.853Z,20
2022-10-30T16:48:39.021Z,20
2022-10-30T16:53:51.098Z,20
2022-10-30T16:59:03.232Z,20
2022-10-30T17:04:15.410Z,20
2022-10-30T17:09:27.725Z,20
2022-10-30T17:19:49.750Z,19
2022-10-30T17:25:01.551Z,19
2022-10-30T17:30:13.532Z,19
2022-10-30T17:35:25.374Z,18
2022-10-30T17:40:37.523Z,18
2022-10-30T17:45:51.377Z,18
2022-10-30T17:56:15.104Z,17
2022-10-30T18:01:51.684Z,17
2022-10-30T18:07:00.111Z,17
2022-10-30T18:12:12.073Z,17
2022-10-30T18:17:23.858Z,17
2022-10-30T18:22:35.710Z,16
2022-10-30T18:32:59.434Z,16
2022-10-30T18:38:11.732Z,16
2022-10-30T18:43:25.842Z,15
2022-10-30T18:48:37.347Z,16
2022-10-30T18:53:49.359Z,16
2022-10-30T18:59:03.209Z,15
2022-10-30T19:04:22.908Z,15
2022-10-30T19:09:32.636Z,15
2022-10-30T19:14:45.068Z,15
2022-10-30T19:25:25.818Z,15
2022-10-30T19:30:37.556Z,15
2022-10-30T19:35:49.183Z,15
2022-10-30T19:41:01.288Z,15
2022-10-30T19:46:13.127Z,15
2022-10-30T19:51:24.884Z,15
2022-10-30T19:56:37.068Z,14
2022-10-30T20:01:49.236Z,14
2022-10-30T20:07:03.248Z,14
2022-10-30T20:12:14.645Z,14
2022-10-30T20:17:27.800Z,14
2022-10-30T20:22:41.935Z,14
2022-10-30T20:27:55.245Z,14
2022-10-30T20:33:06.878Z,14
2022-10-30T20:38:18.938Z,14
2022-10-30T20:43:30.920Z,14
2022-10-30T20:48:42.791Z,14
2022-10-30T20:53:54.525Z,13
2022-10-30T20:59:06.558Z,13
2022-10-30T21:04:18.544Z,14
2022-10-30T21:09:30.862Z,14
2022-10-30T21:14:42.807Z,13
2022-10-30T21:19:54.627Z,13
2022-10-30T21:25:06.398Z,13
2022-10-30T21:30:18.470Z,13
2022-10-30T21:35:30.335Z,13
2022-10-30T21:40:42.382Z,13
2022-10-30T21:45:54.296Z,13
2022-10-30T21:51:06.689Z,13
2022-10-30T21:56:18.800Z,13
2022-10-30T22:01:31.300Z,13
2022-10-30T22:06:43.318Z,13
2022-10-30T22:11:55.248Z,13
2022-10-30T22:17:07.148Z,13
2022-10-30T22:22:19.077Z,13
2022-10-30T22:27:30.897Z,13
2022-10-30T22:32:42.724Z,13
2022-10-30T22:37:54.442Z,12
2022-10-30T22:43:06.336Z,12
2022-10-30T22:48:18.144Z,12
2022-10-30T22:53:29.774Z,12
2022-10-30T22:58:41.639Z,12
2022-10-30T23:03:53.264Z,12
2022-10-30T23:09:04.748Z,12
2022-10-30T23:14:16.425Z,12
2022-10-30T23:19:28.156Z,12
2022-10-30T23:24:39.945Z,12
2022-10-30T23:29:52.272Z,12
2022-10-30T23:35:03.911Z,12
2022-10-30T23:40:15.624Z,12
2022-10-30T23:45:27.425Z,12
2022-10-30T23:50:39.339Z,12
2022-10-30T23:55:50.988Z,12
